sensor_id;sensor_type;location;lat;lon;timestamp;P1;durP1;ratioP1;P2;durP2;ratioP2
10550;SDS011;5324;50.684;3.862;2023-05-10T00:01:08;6.53;;;4.70;;
10550;SDS011;5324;50.684;3.862;2023-05-10T00:03:34;9.13;;;3.93;;
10550;SDS011;5324;50.684;3.862;2023-05-10T00:06:00;4.50;;;4.00;;
10550;SDS011;5324;50.684;3.862;2023-05-10T00:08:26;7.00;;;4.50;;
10550;SDS011;5324;50.684;3.862;2023-05-10T00:10:52;8.13;;;4.10;;
10550;SDS011;5324;50.684;3.862;2023-05-10T00:13:18;6.73;;;4.17;;
10550;SDS011;5324;50.684;3.862;2023-05-10T00:15:44;5.93;;;4.07;;
10550;SDS011;5324;50.684;3.862;2023-05-10T00:18:10;5.90;;;3.87;;
10550;SDS011;5324;50.684;3.862;2023-05-10T00:20:36;6.23;;;4.23;;
10550;SDS011;5324;50.684;3.862;2023-05-10T00:23:02;6.53;;;4.47;;
10550;SDS011;5324;50.684;3.862;2023-05-10T00:25:28;7.70;;;4.50;;
10550;SDS011;5324;50.684;3.862;2023-05-10T00:27:55;8.10;;;4.43;;
10550;SDS011;5324;50.684;3.862;2023-05-10T00:30:22;8.07;;;4.90;;
10550;SDS011;5324;50.684;3.862;2023-05-10T00:32:48;8.07;;;4.50;;
10550;SDS011;5324;50.684;3.862;2023-05-10T00:35:15;7.83;;;5.03;;
10550;SDS011;5324;50.684;3.862;2023-05-10T00:37:41;9.80;;;5.33;;
10550;SDS011;5324;50.684;3.862;2023-05-10T00:40:07;6.53;;;4.37;;
10550;SDS011;5324;50.684;3.862;2023-05-10T00:42:33;7.87;;;4.40;;
10550;SDS011;5324;50.684;3.862;2023-05-10T00:44:59;7.27;;;4.57;;
10550;SDS011;5324;50.684;3.862;2023-05-10T00:47:25;7.40;;;4.80;;
10550;SDS011;5324;50.684;3.862;2023-05-10T00:49:51;6.70;;;4.30;;
10550;SDS011;5324;50.684;3.862;2023-05-10T00:52:17;8.40;;;5.60;;
10550;SDS011;5324;50.684;3.862;2023-05-10T00:54:43;6.83;;;4.73;;
10550;SDS011;5324;50.684;3.862;2023-05-10T00:57:10;7.03;;;4.80;;
10550;SDS011;5324;50.684;3.862;2023-05-10T00:59:37;7.20;;;5.27;;
10550;SDS011;5324;50.684;3.862;2023-05-10T01:02:03;7.77;;;5.00;;
10550;SDS011;5324;50.684;3.862;2023-05-10T01:04:29;6.50;;;5.00;;
10550;SDS011;5324;50.684;3.862;2023-05-10T01:06:55;6.43;;;4.60;;
10550;SDS011;5324;50.684;3.862;2023-05-10T01:09:22;6.53;;;4.87;;
10550;SDS011;5324;50.684;3.862;2023-05-10T01:11:48;6.20;;;4.47;;
10550;SDS011;5324;50.684;3.862;2023-05-10T01:14:15;6.27;;;4.30;;
10550;SDS011;5324;50.684;3.862;2023-05-10T01:16:42;6.20;;;3.93;;
10550;SDS011;5324;50.684;3.862;2023-05-10T01:19:15;6.43;;;4.27;;
10550;SDS011;5324;50.684;3.862;2023-05-10T01:21:44;5.37;;;3.77;;
10550;SDS011;5324;50.684;3.862;2023-05-10T01:29:15;7.17;;;4.10;;
10550;SDS011;5324;50.684;3.862;2023-05-10T01:34:17;5.40;;;4.30;;
10550;SDS011;5324;50.684;3.862;2023-05-10T01:36:51;5.70;;;4.07;;
10550;SDS011;5324;50.684;3.862;2023-05-10T01:39:21;6.23;;;3.80;;
10550;SDS011;5324;50.684;3.862;2023-05-10T01:41:51;6.07;;;4.03;;
10550;SDS011;5324;50.684;3.862;2023-05-10T01:46:45;6.90;;;4.10;;
10550;SDS011;5324;50.684;3.862;2023-05-10T01:49:22;6.43;;;4.97;;
10550;SDS011;5324;50.684;3.862;2023-05-10T01:51:50;6.50;;;4.93;;
10550;SDS011;5324;50.684;3.862;2023-05-10T01:54:19;7.87;;;5.10;;
10550;SDS011;5324;50.684;3.862;2023-05-10T01:56:47;7.23;;;4.97;;
10550;SDS011;5324;50.684;3.862;2023-05-10T01:59:15;8.87;;;5.40;;
10550;SDS011;5324;50.684;3.862;2023-05-10T02:01:43;6.90;;;5.20;;
10550;SDS011;5324;50.684;3.862;2023-05-10T02:04:10;8.60;;;5.50;;
10550;SDS011;5324;50.684;3.862;2023-05-10T02:06:38;9.93;;;5.90;;
10550;SDS011;5324;50.684;3.862;2023-05-10T02:09:04;7.53;;;5.83;;
10550;SDS011;5324;50.684;3.862;2023-05-10T02:11:31;8.20;;;6.07;;
10550;SDS011;5324;50.684;3.862;2023-05-10T02:13:57;12.20;;;6.37;;
10550;SDS011;5324;50.684;3.862;2023-05-10T02:16:24;9.23;;;6.50;;
10550;SDS011;5324;50.684;3.862;2023-05-10T02:18:52;9.93;;;7.67;;
10550;SDS011;5324;50.684;3.862;2023-05-10T02:21:19;10.20;;;7.53;;
10550;SDS011;5324;50.684;3.862;2023-05-10T02:23:45;15.00;;;7.47;;
10550;SDS011;5324;50.684;3.862;2023-05-10T02:26:12;9.47;;;7.03;;
10550;SDS011;5324;50.684;3.862;2023-05-10T02:28:38;12.47;;;7.27;;
10550;SDS011;5324;50.684;3.862;2023-05-10T02:31:05;13.00;;;6.93;;
10550;SDS011;5324;50.684;3.862;2023-05-10T02:33:31;14.83;;;7.97;;
10550;SDS011;5324;50.684;3.862;2023-05-10T02:35:57;11.10;;;7.27;;
10550;SDS011;5324;50.684;3.862;2023-05-10T02:38:24;10.70;;;7.43;;
10550;SDS011;5324;50.684;3.862;2023-05-10T02:40:51;12.83;;;8.00;;
10550;SDS011;5324;50.684;3.862;2023-05-10T02:43:18;12.17;;;7.87;;
10550;SDS011;5324;50.684;3.862;2023-05-10T02:45:45;11.97;;;7.30;;
10550;SDS011;5324;50.684;3.862;2023-05-10T02:48:12;12.73;;;7.70;;
10550;SDS011;5324;50.684;3.862;2023-05-10T02:50:38;10.53;;;6.50;;
10550;SDS011;5324;50.684;3.862;2023-05-10T02:53:11;10.00;;;6.53;;
10550;SDS011;5324;50.684;3.862;2023-05-10T02:55:41;10.13;;;6.93;;
10550;SDS011;5324;50.684;3.862;2023-05-10T02:58:09;12.87;;;7.17;;
10550;SDS011;5324;50.684;3.862;2023-05-10T03:00:35;10.77;;;6.70;;
10550;SDS011;5324;50.684;3.862;2023-05-10T03:03:01;9.90;;;6.40;;
10550;SDS011;5324;50.684;3.862;2023-05-10T03:05:27;8.97;;;6.03;;
10550;SDS011;5324;50.684;3.862;2023-05-10T03:07:53;8.27;;;6.03;;
10550;SDS011;5324;50.684;3.862;2023-05-10T03:10:21;11.10;;;6.00;;
10550;SDS011;5324;50.684;3.862;2023-05-10T03:18:23;8.23;;;4.53;;
10550;SDS011;5324;50.684;3.862;2023-05-10T03:20:56;10.17;;;4.13;;
10550;SDS011;5324;50.684;3.862;2023-05-10T03:25:55;9.17;;;3.70;;
10550;SDS011;5324;50.684;3.862;2023-05-10T03:28:21;5.90;;;3.80;;
10550;SDS011;5324;50.684;3.862;2023-05-10T03:30:50;7.50;;;4.30;;
10550;SDS011;5324;50.684;3.862;2023-05-10T03:33:18;7.77;;;3.50;;
10550;SDS011;5324;50.684;3.862;2023-05-10T03:35:44;9.73;;;4.17;;
10550;SDS011;5324;50.684;3.862;2023-05-10T03:38:11;8.73;;;3.30;;
10550;SDS011;5324;50.684;3.862;2023-05-10T03:40:37;10.90;;;4.27;;
10550;SDS011;5324;50.684;3.862;2023-05-10T03:43:03;10.93;;;3.70;;
10550;SDS011;5324;50.684;3.862;2023-05-10T03:45:29;11.70;;;3.90;;
10550;SDS011;5324;50.684;3.862;2023-05-10T03:47:56;7.83;;;3.67;;
10550;SDS011;5324;50.684;3.862;2023-05-10T03:50:22;8.13;;;3.97;;
10550;SDS011;5324;50.684;3.862;2023-05-10T03:52:48;9.67;;;3.33;;
10550;SDS011;5324;50.684;3.862;2023-05-10T03:55:15;7.27;;;3.27;;
10550;SDS011;5324;50.684;3.862;2023-05-10T03:57:41;6.27;;;3.30;;
10550;SDS011;5324;50.684;3.862;2023-05-10T04:00:07;9.63;;;3.40;;
10550;SDS011;5324;50.684;3.862;2023-05-10T04:02:33;9.60;;;3.30;;
10550;SDS011;5324;50.684;3.862;2023-05-10T04:04:59;4.70;;;2.90;;
10550;SDS011;5324;50.684;3.862;2023-05-10T04:07:26;8.13;;;3.47;;
10550;SDS011;5324;50.684;3.862;2023-05-10T04:09:52;13.80;;;3.70;;
10550;SDS011;5324;50.684;3.862;2023-05-10T04:12:18;10.93;;;3.10;;
10550;SDS011;5324;50.684;3.862;2023-05-10T04:14:44;10.97;;;3.33;;
10550;SDS011;5324;50.684;3.862;2023-05-10T04:17:10;9.07;;;3.23;;
10550;SDS011;5324;50.684;3.862;2023-05-10T04:19:36;7.57;;;3.13;;
10550;SDS011;5324;50.684;3.862;2023-05-10T04:22:02;8.13;;;2.90;;
10550;SDS011;5324;50.684;3.862;2023-05-10T04:24:28;7.70;;;3.43;;
10550;SDS011;5324;50.684;3.862;2023-05-10T04:26:54;9.57;;;3.13;;
10550;SDS011;5324;50.684;3.862;2023-05-10T04:29:20;7.37;;;3.30;;
10550;SDS011;5324;50.684;3.862;2023-05-10T04:31:46;11.93;;;3.60;;
10550;SDS011;5324;50.684;3.862;2023-05-10T04:34:13;8.27;;;3.63;;
10550;SDS011;5324;50.684;3.862;2023-05-10T04:36:39;7.67;;;3.67;;
10550;SDS011;5324;50.684;3.862;2023-05-10T04:39:05;5.80;;;3.33;;
10550;SDS011;5324;50.684;3.862;2023-05-10T04:41:32;8.27;;;3.43;;
10550;SDS011;5324;50.684;3.862;2023-05-10T04:43:58;9.67;;;3.63;;
10550;SDS011;5324;50.684;3.862;2023-05-10T04:46:24;8.73;;;3.70;;
10550;SDS011;5324;50.684;3.862;2023-05-10T04:48:50;10.30;;;4.10;;
10550;SDS011;5324;50.684;3.862;2023-05-10T04:51:16;6.27;;;3.37;;
10550;SDS011;5324;50.684;3.862;2023-05-10T04:53:42;11.40;;;3.80;;
10550;SDS011;5324;50.684;3.862;2023-05-10T04:56:08;6.40;;;3.00;;
10550;SDS011;5324;50.684;3.862;2023-05-10T04:58:34;6.83;;;3.00;;
10550;SDS011;5324;50.684;3.862;2023-05-10T05:01:06;7.50;;;3.33;;
10550;SDS011;5324;50.684;3.862;2023-05-10T05:03:33;7.67;;;3.23;;
10550;SDS011;5324;50.684;3.862;2023-05-10T05:05:59;11.00;;;3.67;;
10550;SDS011;5324;50.684;3.862;2023-05-10T05:08:25;7.73;;;3.20;;
10550;SDS011;5324;50.684;3.862;2023-05-10T05:10:51;6.37;;;3.33;;
10550;SDS011;5324;50.684;3.862;2023-05-10T05:13:17;9.63;;;3.37;;
10550;SDS011;5324;50.684;3.862;2023-05-10T05:15:43;5.17;;;3.20;;
10550;SDS011;5324;50.684;3.862;2023-05-10T05:18:09;6.73;;;2.87;;
10550;SDS011;5324;50.684;3.862;2023-05-10T05:20:35;6.00;;;2.73;;
10550;SDS011;5324;50.684;3.862;2023-05-10T05:23:01;8.43;;;3.13;;
10550;SDS011;5324;50.684;3.862;2023-05-10T05:25:27;7.17;;;3.10;;
10550;SDS011;5324;50.684;3.862;2023-05-10T05:27:53;6.53;;;3.47;;
10550;SDS011;5324;50.684;3.862;2023-05-10T05:30:19;5.90;;;2.90;;
10550;SDS011;5324;50.684;3.862;2023-05-10T05:32:45;9.10;;;3.30;;
10550;SDS011;5324;50.684;3.862;2023-05-10T05:35:14;11.57;;;3.43;;
10550;SDS011;5324;50.684;3.862;2023-05-10T05:37:41;5.77;;;3.20;;
10550;SDS011;5324;50.684;3.862;2023-05-10T05:40:07;4.57;;;3.37;;
10550;SDS011;5324;50.684;3.862;2023-05-10T05:42:33;6.63;;;3.47;;
10550;SDS011;5324;50.684;3.862;2023-05-10T05:44:59;8.33;;;3.13;;
10550;SDS011;5324;50.684;3.862;2023-05-10T05:47:25;7.07;;;3.27;;
10550;SDS011;5324;50.684;3.862;2023-05-10T05:49:51;8.40;;;3.63;;
10550;SDS011;5324;50.684;3.862;2023-05-10T05:52:17;8.67;;;3.60;;
10550;SDS011;5324;50.684;3.862;2023-05-10T05:54:43;6.70;;;2.87;;
10550;SDS011;5324;50.684;3.862;2023-05-10T05:57:09;7.63;;;3.53;;
10550;SDS011;5324;50.684;3.862;2023-05-10T05:59:35;5.10;;;2.90;;
10550;SDS011;5324;50.684;3.862;2023-05-10T06:02:01;10.53;;;3.60;;
10550;SDS011;5324;50.684;3.862;2023-05-10T06:04:27;8.10;;;3.70;;
10550;SDS011;5324;50.684;3.862;2023-05-10T06:06:53;15.67;;;5.13;;
10550;SDS011;5324;50.684;3.862;2023-05-10T06:09:19;8.50;;;4.43;;
10550;SDS011;5324;50.684;3.862;2023-05-10T06:11:45;9.50;;;4.30;;
10550;SDS011;5324;50.684;3.862;2023-05-10T06:14:12;5.77;;;3.70;;
10550;SDS011;5324;50.684;3.862;2023-05-10T06:16:38;7.50;;;3.70;;
10550;SDS011;5324;50.684;3.862;2023-05-10T06:19:04;7.93;;;3.40;;
10550;SDS011;5324;50.684;3.862;2023-05-10T06:21:30;6.30;;;3.27;;
10550;SDS011;5324;50.684;3.862;2023-05-10T06:23:56;4.33;;;2.97;;
10550;SDS011;5324;50.684;3.862;2023-05-10T06:26:23;5.70;;;2.77;;
10550;SDS011;5324;50.684;3.862;2023-05-10T06:28:49;6.27;;;3.43;;
10550;SDS011;5324;50.684;3.862;2023-05-10T06:31:15;6.37;;;3.37;;
10550;SDS011;5324;50.684;3.862;2023-05-10T06:33:42;10.33;;;3.53;;
10550;SDS011;5324;50.684;3.862;2023-05-10T06:36:08;4.23;;;2.47;;
10550;SDS011;5324;50.684;3.862;2023-05-10T06:38:34;6.93;;;3.43;;
10550;SDS011;5324;50.684;3.862;2023-05-10T06:41:00;5.97;;;3.10;;
10550;SDS011;5324;50.684;3.862;2023-05-10T06:43:26;6.90;;;3.40;;
10550;SDS011;5324;50.684;3.862;2023-05-10T06:45:53;4.87;;;2.70;;
10550;SDS011;5324;50.684;3.862;2023-05-10T06:48:19;4.30;;;3.23;;
10550;SDS011;5324;50.684;3.862;2023-05-10T06:50:45;3.57;;;2.80;;
10550;SDS011;5324;50.684;3.862;2023-05-10T06:53:11;3.30;;;3.00;;
10550;SDS011;5324;50.684;3.862;2023-05-10T06:55:38;2.57;;;2.37;;
10550;SDS011;5324;50.684;3.862;2023-05-10T06:58:04;5.43;;;2.63;;
10550;SDS011;5324;50.684;3.862;2023-05-10T07:00:31;3.03;;;2.77;;
10550;SDS011;5324;50.684;3.862;2023-05-10T07:02:57;5.40;;;2.40;;
10550;SDS011;5324;50.684;3.862;2023-05-10T07:05:23;2.30;;;2.10;;
10550;SDS011;5324;50.684;3.862;2023-05-10T07:07:49;2.57;;;2.07;;
10550;SDS011;5324;50.684;3.862;2023-05-10T07:10:16;2.20;;;2.00;;
10550;SDS011;5324;50.684;3.862;2023-05-10T07:12:42;3.43;;;2.10;;
10550;SDS011;5324;50.684;3.862;2023-05-10T07:15:08;2.47;;;2.27;;
10550;SDS011;5324;50.684;3.862;2023-05-10T07:17:34;4.33;;;2.03;;
10550;SDS011;5324;50.684;3.862;2023-05-10T07:20:01;1.93;;;1.80;;
10550;SDS011;5324;50.684;3.862;2023-05-10T07:22:28;2.40;;;2.20;;
10550;SDS011;5324;50.684;3.862;2023-05-10T07:24:54;2.17;;;2.00;;
10550;SDS011;5324;50.684;3.862;2023-05-10T07:27:20;2.13;;;1.97;;
10550;SDS011;5324;50.684;3.862;2023-05-10T07:29:46;2.33;;;2.13;;
10550;SDS011;5324;50.684;3.862;2023-05-10T07:32:13;2.50;;;1.70;;
10550;SDS011;5324;50.684;3.862;2023-05-10T07:34:39;2.70;;;2.47;;
10550;SDS011;5324;50.684;3.862;2023-05-10T07:37:05;2.07;;;1.97;;
10550;SDS011;5324;50.684;3.862;2023-05-10T07:39:32;2.20;;;2.00;;
10550;SDS011;5324;50.684;3.862;2023-05-10T07:41:58;2.50;;;2.30;;
10550;SDS011;5324;50.684;3.862;2023-05-10T07:44:24;3.27;;;2.10;;
10550;SDS011;5324;50.684;3.862;2023-05-10T07:46:50;2.50;;;2.30;;
10550;SDS011;5324;50.684;3.862;2023-05-10T07:49:17;1.97;;;1.87;;
10550;SDS011;5324;50.684;3.862;2023-05-10T07:51:43;3.93;;;1.93;;
10550;SDS011;5324;50.684;3.862;2023-05-10T07:54:09;3.33;;;2.33;;
10550;SDS011;5324;50.684;3.862;2023-05-10T07:56:35;3.20;;;2.10;;
10550;SDS011;5324;50.684;3.862;2023-05-10T07:59:02;3.53;;;3.00;;
10550;SDS011;5324;50.684;3.862;2023-05-10T08:01:32;2.30;;;2.10;;
10550;SDS011;5324;50.684;3.862;2023-05-10T08:03:58;2.27;;;2.07;;
10550;SDS011;5324;50.684;3.862;2023-05-10T08:06:25;2.20;;;2.00;;
10550;SDS011;5324;50.684;3.862;2023-05-10T08:08:55;2.93;;;2.00;;
10550;SDS011;5324;50.684;3.862;2023-05-10T08:11:21;2.33;;;2.13;;
10550;SDS011;5324;50.684;3.862;2023-05-10T08:13:47;2.00;;;1.80;;
10550;SDS011;5324;50.684;3.862;2023-05-10T08:16:14;2.80;;;2.37;;
10550;SDS011;5324;50.684;3.862;2023-05-10T08:18:40;2.40;;;2.20;;
10550;SDS011;5324;50.684;3.862;2023-05-10T08:21:06;4.17;;;2.47;;
10550;SDS011;5324;50.684;3.862;2023-05-10T08:23:32;2.30;;;2.03;;
10550;SDS011;5324;50.684;3.862;2023-05-10T08:25:59;2.57;;;2.10;;
10550;SDS011;5324;50.684;3.862;2023-05-10T08:28:25;2.10;;;1.90;;
10550;SDS011;5324;50.684;3.862;2023-05-10T08:30:51;2.43;;;2.23;;
10550;SDS011;5324;50.684;3.862;2023-05-10T08:33:20;2.33;;;2.13;;
10550;SDS011;5324;50.684;3.862;2023-05-10T08:35:46;2.37;;;2.13;;
10550;SDS011;5324;50.684;3.862;2023-05-10T08:38:12;2.33;;;2.13;;
10550;SDS011;5324;50.684;3.862;2023-05-10T08:40:39;2.63;;;2.33;;
10550;SDS011;5324;50.684;3.862;2023-05-10T08:43:08;2.10;;;1.90;;
10550;SDS011;5324;50.684;3.862;2023-05-10T08:45:38;2.70;;;2.50;;
10550;SDS011;5324;50.684;3.862;2023-05-10T08:48:07;2.53;;;2.30;;
10550;SDS011;5324;50.684;3.862;2023-05-10T08:50:37;2.50;;;2.30;;
10550;SDS011;5324;50.684;3.862;2023-05-10T08:53:05;2.50;;;2.30;;
10550;SDS011;5324;50.684;3.862;2023-05-10T08:55:32;2.47;;;2.27;;
10550;SDS011;5324;50.684;3.862;2023-05-10T08:57:59;2.43;;;2.23;;
10550;SDS011;5324;50.684;3.862;2023-05-10T09:00:26;2.63;;;2.37;;
10550;SDS011;5324;50.684;3.862;2023-05-10T09:02:52;2.47;;;2.27;;
10550;SDS011;5324;50.684;3.862;2023-05-10T09:05:18;2.40;;;2.20;;
10550;SDS011;5324;50.684;3.862;2023-05-10T09:07:44;3.47;;;2.03;;
10550;SDS011;5324;50.684;3.862;2023-05-10T09:10:10;2.60;;;2.40;;
10550;SDS011;5324;50.684;3.862;2023-05-10T09:12:37;3.07;;;2.77;;
10550;SDS011;5324;50.684;3.862;2023-05-10T09:15:03;2.93;;;2.67;;
10550;SDS011;5324;50.684;3.862;2023-05-10T09:17:29;2.30;;;2.10;;
10550;SDS011;5324;50.684;3.862;2023-05-10T09:19:58;2.50;;;2.13;;
10550;SDS011;5324;50.684;3.862;2023-05-10T09:22:24;3.13;;;2.73;;
10550;SDS011;5324;50.684;3.862;2023-05-10T09:25:08;2.70;;;2.50;;
10550;SDS011;5324;50.684;3.862;2023-05-10T09:27:35;3.37;;;2.60;;
10550;SDS011;5324;50.684;3.862;2023-05-10T09:30:02;4.03;;;2.63;;
10550;SDS011;5324;50.684;3.862;2023-05-10T09:32:39;2.73;;;2.40;;
10550;SDS011;5324;50.684;3.862;2023-05-10T09:35:05;3.23;;;2.83;;
10550;SDS011;5324;50.684;3.862;2023-05-10T09:37:32;3.03;;;2.73;;
10550;SDS011;5324;50.684;3.862;2023-05-10T09:39:58;4.17;;;3.17;;
10550;SDS011;5324;50.684;3.862;2023-05-10T09:42:24;6.40;;;4.03;;
10550;SDS011;5324;50.684;3.862;2023-05-10T09:44:50;6.50;;;3.87;;
10550;SDS011;5324;50.684;3.862;2023-05-10T09:47:19;4.70;;;3.50;;
10550;SDS011;5324;50.684;3.862;2023-05-10T09:49:52;4.77;;;3.43;;
10550;SDS011;5324;50.684;3.862;2023-05-10T09:52:21;6.30;;;3.90;;
10550;SDS011;5324;50.684;3.862;2023-05-10T09:54:53;5.27;;;3.73;;
10550;SDS011;5324;50.684;3.862;2023-05-10T09:57:23;7.00;;;3.80;;
10550;SDS011;5324;50.684;3.862;2023-05-10T09:59:49;5.03;;;3.67;;
10550;SDS011;5324;50.684;3.862;2023-05-10T10:02:15;4.63;;;3.67;;
10550;SDS011;5324;50.684;3.862;2023-05-10T10:04:42;5.80;;;4.23;;
10550;SDS011;5324;50.684;3.862;2023-05-10T10:07:08;5.70;;;4.17;;
10550;SDS011;5324;50.684;3.862;2023-05-10T10:09:34;5.50;;;4.20;;
10550;SDS011;5324;50.684;3.862;2023-05-10T10:12:03;5.73;;;4.43;;
10550;SDS011;5324;50.684;3.862;2023-05-10T10:14:29;8.77;;;4.63;;
10550;SDS011;5324;50.684;3.862;2023-05-10T10:16:56;6.30;;;4.63;;
10550;SDS011;5324;50.684;3.862;2023-05-10T10:19:22;5.70;;;4.60;;
10550;SDS011;5324;50.684;3.862;2023-05-10T10:21:49;8.10;;;5.03;;
10550;SDS011;5324;50.684;3.862;2023-05-10T10:24:15;5.73;;;5.00;;
10550;SDS011;5324;50.684;3.862;2023-05-10T10:26:41;7.40;;;4.80;;
10550;SDS011;5324;50.684;3.862;2023-05-10T10:34:05;6.40;;;4.70;;
10550;SDS011;5324;50.684;3.862;2023-05-10T10:36:32;7.77;;;5.40;;
10550;SDS011;5324;50.684;3.862;2023-05-10T10:39:02;7.70;;;5.40;;
10550;SDS011;5324;50.684;3.862;2023-05-10T10:41:34;6.60;;;4.90;;
10550;SDS011;5324;50.684;3.862;2023-05-10T10:50:16;6.10;;;4.53;;
10550;SDS011;5324;50.684;3.862;2023-05-10T10:57:43;5.78;;;5.18;;
10550;SDS011;5324;50.684;3.862;2023-05-10T11:02:45;7.72;;;5.70;;
10550;SDS011;5324;50.684;3.862;2023-05-10T11:10:49;6.53;;;5.63;;
10550;SDS011;5324;50.684;3.862;2023-05-10T11:13:17;6.65;;;5.85;;
10550;SDS011;5324;50.684;3.862;2023-05-10T11:15:52;9.13;;;5.38;;
10550;SDS011;5324;50.684;3.862;2023-05-10T11:18:19;7.53;;;4.97;;
10550;SDS011;5324;50.684;3.862;2023-05-10T11:20:56;6.25;;;5.55;;
10550;SDS011;5324;50.684;3.862;2023-05-10T11:23:23;7.18;;;5.60;;
10550;SDS011;5324;50.684;3.862;2023-05-10T11:25:49;8.00;;;5.73;;
10550;SDS011;5324;50.684;3.862;2023-05-10T11:28:18;6.53;;;5.83;;
10550;SDS011;5324;50.684;3.862;2023-05-10T11:30:44;6.40;;;5.55;;
10550;SDS011;5324;50.684;3.862;2023-05-10T11:33:14;7.20;;;5.43;;
10550;SDS011;5324;50.684;3.862;2023-05-10T11:35:42;7.03;;;5.88;;
10550;SDS011;5324;50.684;3.862;2023-05-10T11:38:08;6.63;;;5.97;;
10550;SDS011;5324;50.684;3.862;2023-05-10T11:40:35;8.43;;;6.20;;
10550;SDS011;5324;50.684;3.862;2023-05-10T11:43:01;7.47;;;6.00;;
10550;SDS011;5324;50.684;3.862;2023-05-10T11:45:27;6.53;;;5.80;;
10550;SDS011;5324;50.684;3.862;2023-05-10T11:47:55;6.97;;;6.10;;
10550;SDS011;5324;50.684;3.862;2023-05-10T11:50:21;12.20;;;6.40;;
10550;SDS011;5324;50.684;3.862;2023-05-10T11:52:50;6.10;;;5.50;;
10550;SDS011;5324;50.684;3.862;2023-05-10T11:55:17;7.63;;;5.60;;
10550;SDS011;5324;50.684;3.862;2023-05-10T11:57:43;8.55;;;6.35;;
10550;SDS011;5324;50.684;3.862;2023-05-10T12:00:12;6.35;;;5.28;;
10550;SDS011;5324;50.684;3.862;2023-05-10T12:02:38;6.75;;;5.65;;
10550;SDS011;5324;50.684;3.862;2023-05-10T12:05:05;9.50;;;5.70;;
10550;SDS011;5324;50.684;3.862;2023-05-10T12:07:31;7.95;;;5.57;;
10550;SDS011;5324;50.684;3.862;2023-05-10T12:10:06;6.57;;;5.78;;
10550;SDS011;5324;50.684;3.862;2023-05-10T12:12:43;7.32;;;6.45;;
10550;SDS011;5324;50.684;3.862;2023-05-10T12:15:17;7.30;;;6.28;;
10550;SDS011;5324;50.684;3.862;2023-05-10T12:17:44;7.32;;;6.00;;
10550;SDS011;5324;50.684;3.862;2023-05-10T12:22:40;6.18;;;5.53;;
10550;SDS011;5324;50.684;3.862;2023-05-10T12:25:07;6.72;;;6.07;;
10550;SDS011;5324;50.684;3.862;2023-05-10T12:27:34;7.35;;;5.60;;
10550;SDS011;5324;50.684;3.862;2023-05-10T12:30:01;8.60;;;6.05;;
10550;SDS011;5324;50.684;3.862;2023-05-10T12:32:37;7.27;;;5.60;;
10550;SDS011;5324;50.684;3.862;2023-05-10T12:35:03;6.15;;;5.38;;
10550;SDS011;5324;50.684;3.862;2023-05-10T12:37:29;6.38;;;5.30;;
10550;SDS011;5324;50.684;3.862;2023-05-10T12:39:55;7.60;;;5.75;;
10550;SDS011;5324;50.684;3.862;2023-05-10T12:42:21;5.70;;;5.20;;
10550;SDS011;5324;50.684;3.862;2023-05-10T12:44:54;6.97;;;5.35;;
10550;SDS011;5324;50.684;3.862;2023-05-10T12:47:20;6.45;;;5.50;;
10550;SDS011;5324;50.684;3.862;2023-05-10T12:49:46;6.43;;;4.93;;
10550;SDS011;5324;50.684;3.862;2023-05-10T12:52:12;7.32;;;5.68;;
10550;SDS011;5324;50.684;3.862;2023-05-10T12:54:38;6.95;;;5.43;;
10550;SDS011;5324;50.684;3.862;2023-05-10T12:57:04;7.07;;;5.57;;
10550;SDS011;5324;50.684;3.862;2023-05-10T12:59:30;6.40;;;5.30;;
10550;SDS011;5324;50.684;3.862;2023-05-10T13:01:56;6.35;;;5.72;;
10550;SDS011;5324;50.684;3.862;2023-05-10T13:04:24;7.35;;;5.38;;
10550;SDS011;5324;50.684;3.862;2023-05-10T13:06:50;7.82;;;5.90;;
10550;SDS011;5324;50.684;3.862;2023-05-10T13:09:16;7.25;;;5.25;;
10550;SDS011;5324;50.684;3.862;2023-05-10T13:11:42;6.57;;;5.07;;
10550;SDS011;5324;50.684;3.862;2023-05-10T13:14:08;9.07;;;5.80;;
10550;SDS011;5324;50.684;3.862;2023-05-10T13:16:34;6.60;;;6.00;;
10550;SDS011;5324;50.684;3.862;2023-05-10T13:19:00;7.13;;;5.30;;
10550;SDS011;5324;50.684;3.862;2023-05-10T13:21:26;7.18;;;5.93;;
10550;SDS011;5324;50.684;3.862;2023-05-10T13:23:52;7.10;;;5.53;;
10550;SDS011;5324;50.684;3.862;2023-05-10T13:26:19;6.35;;;5.75;;
10550;SDS011;5324;50.684;3.862;2023-05-10T13:28:45;10.77;;;5.30;;
10550;SDS011;5324;50.684;3.862;2023-05-10T13:31:11;6.65;;;5.57;;
10550;SDS011;5324;50.684;3.862;2023-05-10T13:33:37;7.70;;;5.40;;
10550;SDS011;5324;50.684;3.862;2023-05-10T13:36:03;6.57;;;5.45;;
10550;SDS011;5324;50.684;3.862;2023-05-10T13:38:29;6.35;;;5.28;;
10550;SDS011;5324;50.684;3.862;2023-05-10T13:40:55;7.80;;;5.43;;
10550;SDS011;5324;50.684;3.862;2023-05-10T13:43:21;6.85;;;5.72;;
10550;SDS011;5324;50.684;3.862;2023-05-10T13:45:47;8.30;;;6.07;;
10550;SDS011;5324;50.684;3.862;2023-05-10T13:48:13;9.05;;;6.35;;
10550;SDS011;5324;50.684;3.862;2023-05-10T13:50:40;6.82;;;5.70;;
10550;SDS011;5324;50.684;3.862;2023-05-10T13:53:06;9.75;;;5.72;;
10550;SDS011;5324;50.684;3.862;2023-05-10T13:55:32;9.20;;;6.10;;
10550;SDS011;5324;50.684;3.862;2023-05-10T13:57:58;6.57;;;5.35;;
10550;SDS011;5324;50.684;3.862;2023-05-10T14:00:24;7.43;;;6.10;;
10550;SDS011;5324;50.684;3.862;2023-05-10T14:02:50;6.93;;;5.28;;
10550;SDS011;5324;50.684;3.862;2023-05-10T14:05:16;9.93;;;6.47;;
10550;SDS011;5324;50.684;3.862;2023-05-10T14:07:42;7.68;;;6.70;;
10550;SDS011;5324;50.684;3.862;2023-05-10T14:10:08;6.78;;;6.07;;
10550;SDS011;5324;50.684;3.862;2023-05-10T14:12:34;9.25;;;6.15;;
10550;SDS011;5324;50.684;3.862;2023-05-10T14:15:01;8.27;;;6.65;;
10550;SDS011;5324;50.684;3.862;2023-05-10T14:17:27;9.75;;;7.05;;
10550;SDS011;5324;50.684;3.862;2023-05-10T14:19:53;9.32;;;5.78;;
10550;SDS011;5324;50.684;3.862;2023-05-10T14:22:19;8.35;;;6.60;;
10550;SDS011;5324;50.684;3.862;2023-05-10T14:24:45;9.23;;;7.10;;
10550;SDS011;5324;50.684;3.862;2023-05-10T14:27:12;10.50;;;7.00;;
10550;SDS011;5324;50.684;3.862;2023-05-10T14:29:38;10.67;;;7.40;;
10550;SDS011;5324;50.684;3.862;2023-05-10T14:32:04;9.53;;;7.63;;
10550;SDS011;5324;50.684;3.862;2023-05-10T14:34:30;11.55;;;7.88;;
10550;SDS011;5324;50.684;3.862;2023-05-10T14:36:56;9.40;;;7.73;;
10550;SDS011;5324;50.684;3.862;2023-05-10T14:39:23;9.50;;;7.20;;
10550;SDS011;5324;50.684;3.862;2023-05-10T14:41:49;8.10;;;7.30;;
10550;SDS011;5324;50.684;3.862;2023-05-10T14:44:16;8.77;;;7.43;;
10550;SDS011;5324;50.684;3.862;2023-05-10T14:46:42;11.17;;;7.97;;
10550;SDS011;5324;50.684;3.862;2023-05-10T14:49:08;9.47;;;7.20;;
10550;SDS011;5324;50.684;3.862;2023-05-10T14:51:34;10.67;;;6.13;;
10550;SDS011;5324;50.684;3.862;2023-05-10T14:54:01;7.37;;;6.30;;
10550;SDS011;5324;50.684;3.862;2023-05-10T14:56:27;8.43;;;7.07;;
10550;SDS011;5324;50.684;3.862;2023-05-10T14:58:53;10.63;;;7.30;;
10550;SDS011;5324;50.684;3.862;2023-05-10T15:01:20;12.43;;;7.70;;
10550;SDS011;5324;50.684;3.862;2023-05-10T15:03:46;10.93;;;7.30;;
10550;SDS011;5324;50.684;3.862;2023-05-10T15:06:13;8.70;;;7.60;;
10550;SDS011;5324;50.684;3.862;2023-05-10T15:08:39;9.37;;;8.00;;
10550;SDS011;5324;50.684;3.862;2023-05-10T15:11:05;8.80;;;7.03;;
10550;SDS011;5324;50.684;3.862;2023-05-10T15:13:31;10.77;;;7.73;;
10550;SDS011;5324;50.684;3.862;2023-05-10T15:15:57;11.27;;;7.50;;
10550;SDS011;5324;50.684;3.862;2023-05-10T15:18:23;10.90;;;6.97;;
10550;SDS011;5324;50.684;3.862;2023-05-10T15:20:49;8.93;;;7.03;;
10550;SDS011;5324;50.684;3.862;2023-05-10T15:23:15;10.00;;;7.37;;
10550;SDS011;5324;50.684;3.862;2023-05-10T15:25:41;8.47;;;7.17;;
10550;SDS011;5324;50.684;3.862;2023-05-10T15:28:08;7.93;;;6.60;;
10550;SDS011;5324;50.684;3.862;2023-05-10T15:30:34;9.47;;;7.50;;
10550;SDS011;5324;50.684;3.862;2023-05-10T15:33:00;9.93;;;6.97;;
10550;SDS011;5324;50.684;3.862;2023-05-10T15:35:26;11.83;;;7.63;;
10550;SDS011;5324;50.684;3.862;2023-05-10T15:37:52;10.03;;;6.93;;
10550;SDS011;5324;50.684;3.862;2023-05-10T15:40:18;9.23;;;7.30;;
10550;SDS011;5324;50.684;3.862;2023-05-10T15:42:44;8.05;;;6.88;;